Terminal Aerodrome Forecast
Issued by NWS

Home | Current Version | Previous Version | Text Only | Print | Product List | Glossary On
Versions: 1 2 3 4 5 6 7 8 9 10 11 12 13
000
FTUS42 KGSP 041740
TAFAND
TAF
KAND 041740Z 0418/0518 00000KT P6SM FEW050
     FM042200 03003KT P6SM VCTS SCT070CB
     FM050300 05005KT P6SM SCT060 BKN250
     FM051300 05006KT P6SM SCT060 PROB30 0514/0518 4SM TSRA
      BKN040CB=

USA.gov is the U.S. government's official web portal to all federal, state and local government web resources and services.